sensor_id;sensor_type;location;lat;lon;timestamp;temperature;humidity
12303;DHT22;6214;48.012;7.862;2023-04-21T00:00:07;5.30;99.90
12303;DHT22;6214;48.012;7.862;2023-04-21T00:02:35;5.40;99.90
12303;DHT22;6214;48.012;7.862;2023-04-21T00:05:07;5.40;99.90
12303;DHT22;6214;48.012;7.862;2023-04-21T00:07:40;5.40;99.90
12303;DHT22;6214;48.012;7.862;2023-04-21T00:10:08;5.40;99.90
12303;DHT22;6214;48.012;7.862;2023-04-21T00:12:35;5.40;99.90
12303;DHT22;6214;48.012;7.862;2023-04-21T00:15:03;5.40;99.90
12303;DHT22;6214;48.012;7.862;2023-04-21T00:17:30;5.30;99.90
12303;DHT22;6214;48.012;7.862;2023-04-21T00:19:57;5.20;99.90
12303;DHT22;6214;48.012;7.862;2023-04-21T00:22:24;5.40;99.90
12303;DHT22;6214;48.012;7.862;2023-04-21T00:24:51;5.30;99.90
12303;DHT22;6214;48.012;7.862;2023-04-21T00:27:18;5.20;99.90
12303;DHT22;6214;48.012;7.862;2023-04-21T00:29:45;5.40;99.90
12303;DHT22;6214;48.012;7.862;2023-04-21T00:32:12;5.40;99.90
12303;DHT22;6214;48.012;7.862;2023-04-21T00:34:39;5.30;99.90
12303;DHT22;6214;48.012;7.862;2023-04-21T00:37:06;5.20;99.90
12303;DHT22;6214;48.012;7.862;2023-04-21T00:39:33;5.20;99.90
12303;DHT22;6214;48.012;7.862;2023-04-21T00:42:00;5.20;99.90
12303;DHT22;6214;48.012;7.862;2023-04-21T00:44:27;5.10;99.90
12303;DHT22;6214;48.012;7.862;2023-04-21T00:46:54;5.00;99.90
12303;DHT22;6214;48.012;7.862;2023-04-21T00:49:23;5.10;99.90
12303;DHT22;6214;48.012;7.862;2023-04-21T00:51:51;5.00;99.90
12303;DHT22;6214;48.012;7.862;2023-04-21T00:54:19;4.90;99.90
12303;DHT22;6214;48.012;7.862;2023-04-21T00:56:47;4.90;99.90
12303;DHT22;6214;48.012;7.862;2023-04-21T00:59:13;5.00;99.90
12303;DHT22;6214;48.012;7.862;2023-04-21T01:01:40;4.90;99.90
12303;DHT22;6214;48.012;7.862;2023-04-21T01:04:07;4.80;99.90
12303;DHT22;6214;48.012;7.862;2023-04-21T01:06:36;4.90;99.90
12303;DHT22;6214;48.012;7.862;2023-04-21T01:09:03;4.80;99.90
12303;DHT22;6214;48.012;7.862;2023-04-21T01:11:30;4.80;99.90
12303;DHT22;6214;48.012;7.862;2023-04-21T01:13:57;4.90;99.90
12303;DHT22;6214;48.012;7.862;2023-04-21T01:16:24;4.90;99.90
12303;DHT22;6214;48.012;7.862;2023-04-21T01:18:52;4.90;99.90
12303;DHT22;6214;48.012;7.862;2023-04-21T01:21:20;4.90;99.90
12303;DHT22;6214;48.012;7.862;2023-04-21T01:23:47;4.80;99.90
12303;DHT22;6214;48.012;7.862;2023-04-21T01:26:21;4.80;99.90
12303;DHT22;6214;48.012;7.862;2023-04-21T01:28:49;4.90;99.90
12303;DHT22;6214;48.012;7.862;2023-04-21T01:31:17;4.90;99.90
12303;DHT22;6214;48.012;7.862;2023-04-21T01:33:44;4.70;99.90
12303;DHT22;6214;48.012;7.862;2023-04-21T01:36:11;4.70;99.90
12303;DHT22;6214;48.012;7.862;2023-04-21T01:38:39;4.80;99.90
12303;DHT22;6214;48.012;7.862;2023-04-21T01:41:07;4.90;99.90
12303;DHT22;6214;48.012;7.862;2023-04-21T01:43:34;5.00;99.90
12303;DHT22;6214;48.012;7.862;2023-04-21T01:46:04;4.90;99.90
12303;DHT22;6214;48.012;7.862;2023-04-21T01:48:31;4.90;99.90
12303;DHT22;6214;48.012;7.862;2023-04-21T01:50:58;4.80;99.90
12303;DHT22;6214;48.012;7.862;2023-04-21T01:53:25;4.70;99.90
12303;DHT22;6214;48.012;7.862;2023-04-21T01:55:52;4.70;99.90
12303;DHT22;6214;48.012;7.862;2023-04-21T01:58:20;4.80;99.90
12303;DHT22;6214;48.012;7.862;2023-04-21T02:00:47;4.70;99.90
12303;DHT22;6214;48.012;7.862;2023-04-21T02:03:14;4.70;99.90
12303;DHT22;6214;48.012;7.862;2023-04-21T02:05:41;4.70;99.90
12303;DHT22;6214;48.012;7.862;2023-04-21T02:08:08;4.70;99.90
12303;DHT22;6214;48.012;7.862;2023-04-21T02:10:35;4.60;99.90
12303;DHT22;6214;48.012;7.862;2023-04-21T02:13:02;4.50;99.90
12303;DHT22;6214;48.012;7.862;2023-04-21T02:15:29;4.60;99.90
12303;DHT22;6214;48.012;7.862;2023-04-21T02:17:56;4.60;99.90
12303;DHT22;6214;48.012;7.862;2023-04-21T02:20:24;4.50;99.90
12303;DHT22;6214;48.012;7.862;2023-04-21T02:22:51;4.50;99.90
12303;DHT22;6214;48.012;7.862;2023-04-21T02:25:18;4.50;99.90
12303;DHT22;6214;48.012;7.862;2023-04-21T02:27:45;4.50;99.90
12303;DHT22;6214;48.012;7.862;2023-04-21T02:30:12;4.40;99.90
12303;DHT22;6214;48.012;7.862;2023-04-21T02:32:39;4.50;99.90
12303;DHT22;6214;48.012;7.862;2023-04-21T02:35:07;4.50;99.90
12303;DHT22;6214;48.012;7.862;2023-04-21T02:37:34;4.50;99.90
12303;DHT22;6214;48.012;7.862;2023-04-21T02:40:01;4.40;99.90
12303;DHT22;6214;48.012;7.862;2023-04-21T02:42:28;4.40;99.90
12303;DHT22;6214;48.012;7.862;2023-04-21T02:44:55;4.30;99.90
12303;DHT22;6214;48.012;7.862;2023-04-21T02:47:22;4.40;99.90
12303;DHT22;6214;48.012;7.862;2023-04-21T02:49:49;4.60;99.90
12303;DHT22;6214;48.012;7.862;2023-04-21T02:52:16;4.50;99.90
12303;DHT22;6214;48.012;7.862;2023-04-21T02:54:43;4.50;99.90
12303;DHT22;6214;48.012;7.862;2023-04-21T02:57:10;4.30;99.90
12303;DHT22;6214;48.012;7.862;2023-04-21T02:59:37;4.30;99.90
12303;DHT22;6214;48.012;7.862;2023-04-21T03:02:04;4.20;99.90
12303;DHT22;6214;48.012;7.862;2023-04-21T03:04:31;4.20;99.90
12303;DHT22;6214;48.012;7.862;2023-04-21T03:06:59;4.30;99.90
12303;DHT22;6214;48.012;7.862;2023-04-21T03:09:26;4.30;99.90
12303;DHT22;6214;48.012;7.862;2023-04-21T03:11:53;4.30;99.90
12303;DHT22;6214;48.012;7.862;2023-04-21T03:14:20;4.30;99.90
12303;DHT22;6214;48.012;7.862;2023-04-21T03:16:47;4.20;99.90
12303;DHT22;6214;48.012;7.862;2023-04-21T03:19:14;4.10;99.90
12303;DHT22;6214;48.012;7.862;2023-04-21T03:21:41;4.10;99.90
12303;DHT22;6214;48.012;7.862;2023-04-21T03:24:08;4.00;99.90
12303;DHT22;6214;48.012;7.862;2023-04-21T03:26:36;4.10;99.90
12303;DHT22;6214;48.012;7.862;2023-04-21T03:29:04;4.20;99.90
12303;DHT22;6214;48.012;7.862;2023-04-21T03:31:31;4.20;99.90
12303;DHT22;6214;48.012;7.862;2023-04-21T03:33:59;4.20;99.90
12303;DHT22;6214;48.012;7.862;2023-04-21T03:36:26;4.10;99.90
12303;DHT22;6214;48.012;7.862;2023-04-21T03:38:53;3.90;99.90
12303;DHT22;6214;48.012;7.862;2023-04-21T03:41:20;4.00;99.90
12303;DHT22;6214;48.012;7.862;2023-04-21T03:43:49;4.00;99.90
12303;DHT22;6214;48.012;7.862;2023-04-21T03:46:18;4.00;99.90
12303;DHT22;6214;48.012;7.862;2023-04-21T03:48:46;3.90;99.90
12303;DHT22;6214;48.012;7.862;2023-04-21T03:51:15;4.00;99.90
12303;DHT22;6214;48.012;7.862;2023-04-21T03:53:42;4.00;99.90
12303;DHT22;6214;48.012;7.862;2023-04-21T03:56:09;4.10;99.90
12303;DHT22;6214;48.012;7.862;2023-04-21T03:58:36;3.90;99.90
12303;DHT22;6214;48.012;7.862;2023-04-21T04:01:04;4.00;99.90
12303;DHT22;6214;48.012;7.862;2023-04-21T04:03:32;3.90;99.90
12303;DHT22;6214;48.012;7.862;2023-04-21T04:06:00;4.00;99.90
12303;DHT22;6214;48.012;7.862;2023-04-21T04:08:29;4.00;99.90
12303;DHT22;6214;48.012;7.862;2023-04-21T04:10:56;4.00;99.90
12303;DHT22;6214;48.012;7.862;2023-04-21T04:13:23;4.00;99.90
12303;DHT22;6214;48.012;7.862;2023-04-21T04:15:52;4.10;99.90
12303;DHT22;6214;48.012;7.862;2023-04-21T04:18:20;4.10;99.90
12303;DHT22;6214;48.012;7.862;2023-04-21T04:20:47;4.20;99.90
12303;DHT22;6214;48.012;7.862;2023-04-21T04:23:14;4.10;99.90
12303;DHT22;6214;48.012;7.862;2023-04-21T04:25:41;4.10;99.90
12303;DHT22;6214;48.012;7.862;2023-04-21T04:28:08;3.90;99.90
12303;DHT22;6214;48.012;7.862;2023-04-21T04:30:36;4.00;99.90
12303;DHT22;6214;48.012;7.862;2023-04-21T04:33:04;3.90;99.90
12303;DHT22;6214;48.012;7.862;2023-04-21T04:35:31;3.90;99.90
12303;DHT22;6214;48.012;7.862;2023-04-21T04:37:58;3.80;99.90
12303;DHT22;6214;48.012;7.862;2023-04-21T04:40:25;3.90;99.90
12303;DHT22;6214;48.012;7.862;2023-04-21T04:42:54;3.90;99.90
12303;DHT22;6214;48.012;7.862;2023-04-21T04:45:21;3.80;99.90
12303;DHT22;6214;48.012;7.862;2023-04-21T04:47:48;4.00;99.90
12303;DHT22;6214;48.012;7.862;2023-04-21T04:50:16;4.00;99.90
12303;DHT22;6214;48.012;7.862;2023-04-21T04:52:43;3.80;99.90
12303;DHT22;6214;48.012;7.862;2023-04-21T04:55:12;3.80;99.90
12303;DHT22;6214;48.012;7.862;2023-04-21T04:57:40;4.00;99.90
12303;DHT22;6214;48.012;7.862;2023-04-21T05:00:08;4.10;99.90
12303;DHT22;6214;48.012;7.862;2023-04-21T05:02:40;4.00;99.90
12303;DHT22;6214;48.012;7.862;2023-04-21T05:05:07;4.00;99.90
12303;DHT22;6214;48.012;7.862;2023-04-21T05:07:34;4.10;99.90
12303;DHT22;6214;48.012;7.862;2023-04-21T05:10:02;4.10;99.90
12303;DHT22;6214;48.012;7.862;2023-04-21T05:12:30;4.20;99.90
12303;DHT22;6214;48.012;7.862;2023-04-21T05:15:00;4.20;99.90
12303;DHT22;6214;48.012;7.862;2023-04-21T05:17:27;4.10;99.90
12303;DHT22;6214;48.012;7.862;2023-04-21T05:19:56;4.10;99.90
12303;DHT22;6214;48.012;7.862;2023-04-21T05:22:24;4.20;99.90
12303;DHT22;6214;48.012;7.862;2023-04-21T05:24:51;4.30;99.90
12303;DHT22;6214;48.012;7.862;2023-04-21T05:27:18;4.50;99.90
12303;DHT22;6214;48.012;7.862;2023-04-21T05:29:45;4.50;99.90
12303;DHT22;6214;48.012;7.862;2023-04-21T05:32:12;4.60;99.90
12303;DHT22;6214;48.012;7.862;2023-04-21T05:34:40;4.80;99.90
12303;DHT22;6214;48.012;7.862;2023-04-21T05:37:08;4.90;99.90
12303;DHT22;6214;48.012;7.862;2023-04-21T05:39:35;4.90;99.90
12303;DHT22;6214;48.012;7.862;2023-04-21T05:42:03;4.90;99.90
12303;DHT22;6214;48.012;7.862;2023-04-21T05:44:29;5.00;99.90
12303;DHT22;6214;48.012;7.862;2023-04-21T05:46:56;5.00;99.90
12303;DHT22;6214;48.012;7.862;2023-04-21T05:49:23;4.90;99.90
12303;DHT22;6214;48.012;7.862;2023-04-21T05:51:50;4.90;99.90
12303;DHT22;6214;48.012;7.862;2023-04-21T05:54:17;5.10;99.90
12303;DHT22;6214;48.012;7.862;2023-04-21T05:56:45;5.90;99.90
12303;DHT22;6214;48.012;7.862;2023-04-21T05:59:13;9.70;99.90
12303;DHT22;6214;48.012;7.862;2023-04-21T06:01:41;11.30;99.90
12303;DHT22;6214;48.012;7.862;2023-04-21T06:04:08;11.60;99.90
12303;DHT22;6214;48.012;7.862;2023-04-21T06:06:36;11.50;99.90
12303;DHT22;6214;48.012;7.862;2023-04-21T06:09:03;11.60;99.90
12303;DHT22;6214;48.012;7.862;2023-04-21T06:11:31;12.30;99.90
12303;DHT22;6214;48.012;7.862;2023-04-21T06:14:00;14.20;99.90
12303;DHT22;6214;48.012;7.862;2023-04-21T06:16:27;13.60;99.90
12303;DHT22;6214;48.012;7.862;2023-04-21T06:18:55;14.00;99.90
12303;DHT22;6214;48.012;7.862;2023-04-21T06:21:24;14.50;99.90
12303;DHT22;6214;48.012;7.862;2023-04-21T06:23:51;15.30;99.90
12303;DHT22;6214;48.012;7.862;2023-04-21T06:26:18;15.80;99.90
12303;DHT22;6214;48.012;7.862;2023-04-21T06:28:45;17.50;99.90
12303;DHT22;6214;48.012;7.862;2023-04-21T06:31:12;20.80;99.90
12303;DHT22;6214;48.012;7.862;2023-04-21T06:33:42;22.50;99.10
12303;DHT22;6214;48.012;7.862;2023-04-21T06:36:09;23.70;94.70
12303;DHT22;6214;48.012;7.862;2023-04-21T06:38:36;24.20;90.80
12303;DHT22;6214;48.012;7.862;2023-04-21T06:41:05;24.40;85.20
12303;DHT22;6214;48.012;7.862;2023-04-21T06:43:32;23.90;83.90
12303;DHT22;6214;48.012;7.862;2023-04-21T06:45:59;23.30;84.90
12303;DHT22;6214;48.012;7.862;2023-04-21T06:48:26;22.20;86.80
12303;DHT22;6214;48.012;7.862;2023-04-21T06:50:55;22.80;88.00
12303;DHT22;6214;48.012;7.862;2023-04-21T06:53:22;23.50;83.50
12303;DHT22;6214;48.012;7.862;2023-04-21T06:55:49;23.50;84.90
12303;DHT22;6214;48.012;7.862;2023-04-21T06:58:16;24.10;82.80
12303;DHT22;6214;48.012;7.862;2023-04-21T07:00:46;24.90;80.80
12303;DHT22;6214;48.012;7.862;2023-04-21T07:03:13;26.00;79.50
12303;DHT22;6214;48.012;7.862;2023-04-21T07:05:41;27.50;73.70
12303;DHT22;6214;48.012;7.862;2023-04-21T07:08:08;28.20;68.50
12303;DHT22;6214;48.012;7.862;2023-04-21T07:10:35;29.30;65.40
12303;DHT22;6214;48.012;7.862;2023-04-21T07:13:02;28.10;60.00
12303;DHT22;6214;48.012;7.862;2023-04-21T07:15:29;25.10;62.30
12303;DHT22;6214;48.012;7.862;2023-04-21T07:17:56;22.80;67.80
12303;DHT22;6214;48.012;7.862;2023-04-21T07:20:24;20.60;74.80
12303;DHT22;6214;48.012;7.862;2023-04-21T07:22:51;20.80;76.30
12303;DHT22;6214;48.012;7.862;2023-04-21T07:25:18;21.20;77.80
12303;DHT22;6214;48.012;7.862;2023-04-21T07:27:45;20.70;78.90
12303;DHT22;6214;48.012;7.862;2023-04-21T07:30:12;21.70;82.00
12303;DHT22;6214;48.012;7.862;2023-04-21T07:32:39;22.90;81.10
12303;DHT22;6214;48.012;7.862;2023-04-21T07:35:07;24.30;76.00
12303;DHT22;6214;48.012;7.862;2023-04-21T07:37:34;26.90;73.30
12303;DHT22;6214;48.012;7.862;2023-04-21T07:40:01;29.20;66.80
12303;DHT22;6214;48.012;7.862;2023-04-21T07:42:28;30.40;59.10
12303;DHT22;6214;48.012;7.862;2023-04-21T07:44:55;32.00;55.60
12303;DHT22;6214;48.012;7.862;2023-04-21T07:47:23;32.50;53.90
12303;DHT22;6214;48.012;7.862;2023-04-21T07:49:50;32.60;50.30
12303;DHT22;6214;48.012;7.862;2023-04-21T07:52:17;31.90;50.00
12303;DHT22;6214;48.012;7.862;2023-04-21T07:54:44;31.00;50.60
12303;DHT22;6214;48.012;7.862;2023-04-21T07:57:11;31.70;51.20
12303;DHT22;6214;48.012;7.862;2023-04-21T07:59:38;31.60;50.30
12303;DHT22;6214;48.012;7.862;2023-04-21T08:02:05;32.30;49.90
12303;DHT22;6214;48.012;7.862;2023-04-21T08:04:32;33.40;47.40
12303;DHT22;6214;48.012;7.862;2023-04-21T08:07:00;33.80;46.20
12303;DHT22;6214;48.012;7.862;2023-04-21T08:09:27;34.20;45.50
12303;DHT22;6214;48.012;7.862;2023-04-21T08:11:54;34.20;44.70
12303;DHT22;6214;48.012;7.862;2023-04-21T08:14:22;33.90;45.00
12303;DHT22;6214;48.012;7.862;2023-04-21T08:16:49;33.30;45.70
12303;DHT22;6214;48.012;7.862;2023-04-21T08:19:17;33.30;46.50
12303;DHT22;6214;48.012;7.862;2023-04-21T08:21:44;33.40;45.30
12303;DHT22;6214;48.012;7.862;2023-04-21T08:24:12;34.60;45.20
12303;DHT22;6214;48.012;7.862;2023-04-21T08:26:39;33.80;44.60
12303;DHT22;6214;48.012;7.862;2023-04-21T08:29:06;34.70;44.50
12303;DHT22;6214;48.012;7.862;2023-04-21T08:31:35;32.50;43.10
12303;DHT22;6214;48.012;7.862;2023-04-21T08:34:02;32.80;45.60
12303;DHT22;6214;48.012;7.862;2023-04-21T08:36:30;33.00;43.80
12303;DHT22;6214;48.012;7.862;2023-04-21T08:38:58;32.30;45.20
12303;DHT22;6214;48.012;7.862;2023-04-21T08:41:25;33.40;45.40
12303;DHT22;6214;48.012;7.862;2023-04-21T08:43:52;33.30;44.00
12303;DHT22;6214;48.012;7.862;2023-04-21T08:46:20;33.70;44.70
12303;DHT22;6214;48.012;7.862;2023-04-21T08:48:48;33.70;44.10
12303;DHT22;6214;48.012;7.862;2023-04-21T08:51:22;34.20;44.70
12303;DHT22;6214;48.012;7.862;2023-04-21T08:53:50;32.90;44.10
12303;DHT22;6214;48.012;7.862;2023-04-21T08:56:17;32.60;45.70
12303;DHT22;6214;48.012;7.862;2023-04-21T08:58:45;31.80;45.70
12303;DHT22;6214;48.012;7.862;2023-04-21T09:01:12;33.20;45.70
12303;DHT22;6214;48.012;7.862;2023-04-21T09:03:39;33.70;45.20
12303;DHT22;6214;48.012;7.862;2023-04-21T09:06:07;33.20;44.70
12303;DHT22;6214;48.012;7.862;2023-04-21T09:08:42;31.90;46.90
12303;DHT22;6214;48.012;7.862;2023-04-21T09:11:13;31.30;47.40
12303;DHT22;6214;48.012;7.862;2023-04-21T09:13:42;30.40;48.50
12303;DHT22;6214;48.012;7.862;2023-04-21T09:16:20;30.60;49.30
12303;DHT22;6214;48.012;7.862;2023-04-21T09:18:49;31.00;47.90
12303;DHT22;6214;48.012;7.862;2023-04-21T09:21:18;31.10;48.50
12303;DHT22;6214;48.012;7.862;2023-04-21T09:23:51;31.30;48.10
12303;DHT22;6214;48.012;7.862;2023-04-21T09:26:19;31.50;47.00
12303;DHT22;6214;48.012;7.862;2023-04-21T09:28:50;30.10;47.80
12303;DHT22;6214;48.012;7.862;2023-04-21T09:31:20;30.10;48.50
12303;DHT22;6214;48.012;7.862;2023-04-21T09:33:52;29.90;48.10
12303;DHT22;6214;48.012;7.862;2023-04-21T09:36:29;29.00;49.80
12303;DHT22;6214;48.012;7.862;2023-04-21T09:38:59;28.40;50.70
12303;DHT22;6214;48.012;7.862;2023-04-21T09:41:31;28.10;50.70
12303;DHT22;6214;48.012;7.862;2023-04-21T09:43:58;28.30;50.60
12303;DHT22;6214;48.012;7.862;2023-04-21T09:46:32;28.40;50.70
12303;DHT22;6214;48.012;7.862;2023-04-21T09:49:00;28.40;49.70
12303;DHT22;6214;48.012;7.862;2023-04-21T09:51:29;27.80;50.80
12303;DHT22;6214;48.012;7.862;2023-04-21T09:54:20;27.20;50.00
12303;DHT22;6214;48.012;7.862;2023-04-21T09:57:01;25.30;50.90
12303;DHT22;6214;48.012;7.862;2023-04-21T09:59:41;23.10;54.10
12303;DHT22;6214;48.012;7.862;2023-04-21T10:02:11;21.40;58.00
12303;DHT22;6214;48.012;7.862;2023-04-21T10:04:40;19.40;61.00
12303;DHT22;6214;48.012;7.862;2023-04-21T10:07:09;18.90;67.10
12303;DHT22;6214;48.012;7.862;2023-04-21T10:10:07;18.20;73.60
12303;DHT22;6214;48.012;7.862;2023-04-21T10:12:35;17.40;82.10
12303;DHT22;6214;48.012;7.862;2023-04-21T10:15:05;17.50;90.40
12303;DHT22;6214;48.012;7.862;2023-04-21T10:17:34;17.60;92.10
12303;DHT22;6214;48.012;7.862;2023-04-21T10:20:06;17.60;93.20
12303;DHT22;6214;48.012;7.862;2023-04-21T10:22:35;17.80;94.10
12303;DHT22;6214;48.012;7.862;2023-04-21T10:25:07;18.00;94.80
12303;DHT22;6214;48.012;7.862;2023-04-21T10:27:39;17.90;96.70
12303;DHT22;6214;48.012;7.862;2023-04-21T10:30:23;17.70;96.00
12303;DHT22;6214;48.012;7.862;2023-04-21T10:33:04;17.50;97.90
12303;DHT22;6214;48.012;7.862;2023-04-21T10:36:00;17.60;99.90
12303;DHT22;6214;48.012;7.862;2023-04-21T10:38:34;17.60;99.90
12303;DHT22;6214;48.012;7.862;2023-04-21T10:41:27;17.40;99.90
12303;DHT22;6214;48.012;7.862;2023-04-21T10:44:20;17.40;99.90
12303;DHT22;6214;48.012;7.862;2023-04-21T10:46:49;17.60;99.90
12303;DHT22;6214;48.012;7.862;2023-04-21T10:49:27;17.50;99.90
12303;DHT22;6214;48.012;7.862;2023-04-21T10:54:36;17.60;99.90
12303;DHT22;6214;48.012;7.862;2023-04-21T10:57:06;17.90;99.90
12303;DHT22;6214;48.012;7.862;2023-04-21T10:59:34;18.00;99.90
12303;DHT22;6214;48.012;7.862;2023-04-21T11:02:05;17.60;99.90
12303;DHT22;6214;48.012;7.862;2023-04-21T11:04:33;17.80;99.90
12303;DHT22;6214;48.012;7.862;2023-04-21T11:07:13;18.00;99.90
12303;DHT22;6214;48.012;7.862;2023-04-21T11:09:43;18.30;99.90
12303;DHT22;6214;48.012;7.862;2023-04-21T11:12:17;19.00;99.90
12303;DHT22;6214;48.012;7.862;2023-04-21T11:14:45;18.90;99.90
12303;DHT22;6214;48.012;7.862;2023-04-21T11:17:17;18.90;99.90
12303;DHT22;6214;48.012;7.862;2023-04-21T11:19:46;18.40;99.90
12303;DHT22;6214;48.012;7.862;2023-04-21T11:22:15;18.10;99.90
12303;DHT22;6214;48.012;7.862;2023-04-21T11:24:47;18.10;99.90
12303;DHT22;6214;48.012;7.862;2023-04-21T11:27:14;18.80;99.90
12303;DHT22;6214;48.012;7.862;2023-04-21T11:29:43;18.90;99.90
12303;DHT22;6214;48.012;7.862;2023-04-21T11:32:10;18.80;99.90
12303;DHT22;6214;48.012;7.862;2023-04-21T11:34:37;19.50;99.90
12303;DHT22;6214;48.012;7.862;2023-04-21T11:37:09;19.90;99.90
12303;DHT22;6214;48.012;7.862;2023-04-21T11:39:39;19.90;99.90
12303;DHT22;6214;48.012;7.862;2023-04-21T11:42:07;19.40;99.90
12303;DHT22;6214;48.012;7.862;2023-04-21T11:47:22;19.50;99.90
12303;DHT22;6214;48.012;7.862;2023-04-21T11:49:55;19.20;99.90
12303;DHT22;6214;48.012;7.862;2023-04-21T11:52:27;19.00;99.90
12303;DHT22;6214;48.012;7.862;2023-04-21T11:54:59;19.10;99.90
12303;DHT22;6214;48.012;7.862;2023-04-21T11:57:27;19.30;99.90
12303;DHT22;6214;48.012;7.862;2023-04-21T12:00:00;18.80;99.90
12303;DHT22;6214;48.012;7.862;2023-04-21T12:02:30;19.00;99.90
12303;DHT22;6214;48.012;7.862;2023-04-21T12:05:05;18.50;99.90
12303;DHT22;6214;48.012;7.862;2023-04-21T12:07:35;18.50;99.90
12303;DHT22;6214;48.012;7.862;2023-04-21T12:10:11;18.50;99.90
12303;DHT22;6214;48.012;7.862;2023-04-21T12:12:39;18.40;99.90
12303;DHT22;6214;48.012;7.862;2023-04-21T12:15:08;19.40;99.90
12303;DHT22;6214;48.012;7.862;2023-04-21T12:17:43;19.40;99.90
12303;DHT22;6214;48.012;7.862;2023-04-21T12:20:12;19.20;99.90
12303;DHT22;6214;48.012;7.862;2023-04-21T12:22:39;19.40;99.90
12303;DHT22;6214;48.012;7.862;2023-04-21T12:25:06;19.60;99.90
12303;DHT22;6214;48.012;7.862;2023-04-21T12:27:34;19.50;99.90
12303;DHT22;6214;48.012;7.862;2023-04-21T12:30:02;19.30;99.90
12303;DHT22;6214;48.012;7.862;2023-04-21T12:32:29;18.90;99.90
12303;DHT22;6214;48.012;7.862;2023-04-21T12:34:56;19.00;99.90
12303;DHT22;6214;48.012;7.862;2023-04-21T12:37:23;18.90;99.90
12303;DHT22;6214;48.012;7.862;2023-04-21T12:39:51;18.90;99.90
12303;DHT22;6214;48.012;7.862;2023-04-21T12:42:18;18.90;99.90
12303;DHT22;6214;48.012;7.862;2023-04-21T12:44:45;18.70;99.90
12303;DHT22;6214;48.012;7.862;2023-04-21T12:47:12;18.40;99.90
12303;DHT22;6214;48.012;7.862;2023-04-21T12:49:40;18.10;99.90
12303;DHT22;6214;48.012;7.862;2023-04-21T12:52:07;18.10;99.90
12303;DHT22;6214;48.012;7.862;2023-04-21T12:54:34;18.20;99.90
12303;DHT22;6214;48.012;7.862;2023-04-21T12:57:01;18.80;99.90
12303;DHT22;6214;48.012;7.862;2023-04-21T12:59:28;19.00;99.90
12303;DHT22;6214;48.012;7.862;2023-04-21T13:01:56;19.40;99.90
12303;DHT22;6214;48.012;7.862;2023-04-21T13:04:23;19.90;99.90
12303;DHT22;6214;48.012;7.862;2023-04-21T13:06:51;19.80;99.90
12303;DHT22;6214;48.012;7.862;2023-04-21T13:09:18;19.40;99.90
12303;DHT22;6214;48.012;7.862;2023-04-21T13:11:45;19.00;99.90
12303;DHT22;6214;48.012;7.862;2023-04-21T13:14:12;18.80;99.90
12303;DHT22;6214;48.012;7.862;2023-04-21T13:16:39;18.50;99.90
12303;DHT22;6214;48.012;7.862;2023-04-21T13:19:07;18.80;99.90
12303;DHT22;6214;48.012;7.862;2023-04-21T13:21:34;19.10;99.90
12303;DHT22;6214;48.012;7.862;2023-04-21T13:24:01;19.00;99.90
12303;DHT22;6214;48.012;7.862;2023-04-21T13:26:30;19.30;99.90
12303;DHT22;6214;48.012;7.862;2023-04-21T13:28:59;19.00;99.90
12303;DHT22;6214;48.012;7.862;2023-04-21T13:31:26;19.00;99.90
12303;DHT22;6214;48.012;7.862;2023-04-21T13:33:53;19.10;99.90
12303;DHT22;6214;48.012;7.862;2023-04-21T13:36:20;19.10;99.90
12303;DHT22;6214;48.012;7.862;2023-04-21T13:38:47;19.50;99.90
12303;DHT22;6214;48.012;7.862;2023-04-21T13:41:16;19.70;99.90
12303;DHT22;6214;48.012;7.862;2023-04-21T13:43:43;19.80;99.90
12303;DHT22;6214;48.012;7.862;2023-04-21T13:46:10;19.80;99.90
12303;DHT22;6214;48.012;7.862;2023-04-21T13:48:41;20.00;99.90
12303;DHT22;6214;48.012;7.862;2023-04-21T13:51:07;20.40;99.90
12303;DHT22;6214;48.012;7.862;2023-04-21T13:53:35;20.70;99.90
12303;DHT22;6214;48.012;7.862;2023-04-21T13:56:01;20.60;99.90
12303;DHT22;6214;48.012;7.862;2023-04-21T13:58:28;20.90;99.90
12303;DHT22;6214;48.012;7.862;2023-04-21T14:00:56;20.70;99.90
12303;DHT22;6214;48.012;7.862;2023-04-21T14:03:23;20.70;99.90
12303;DHT22;6214;48.012;7.862;2023-04-21T14:05:50;20.20;99.90
12303;DHT22;6214;48.012;7.862;2023-04-21T14:08:17;20.30;99.90
12303;DHT22;6214;48.012;7.862;2023-04-21T14:10:44;20.40;99.90
12303;DHT22;6214;48.012;7.862;2023-04-21T14:13:11;20.60;99.90
12303;DHT22;6214;48.012;7.862;2023-04-21T14:15:58;20.90;99.90
12303;DHT22;6214;48.012;7.862;2023-04-21T14:18:26;20.70;99.90
12303;DHT22;6214;48.012;7.862;2023-04-21T14:20:52;20.20;99.90
12303;DHT22;6214;48.012;7.862;2023-04-21T14:23:19;19.50;99.90
12303;DHT22;6214;48.012;7.862;2023-04-21T14:25:46;19.30;99.90
12303;DHT22;6214;48.012;7.862;2023-04-21T14:28:13;19.40;99.90
12303;DHT22;6214;48.012;7.862;2023-04-21T14:30:40;19.50;99.90
12303;DHT22;6214;48.012;7.862;2023-04-21T14:33:08;19.90;99.90
12303;DHT22;6214;48.012;7.862;2023-04-21T14:35:36;19.70;99.90
12303;DHT22;6214;48.012;7.862;2023-04-21T14:38:03;19.70;99.90
12303;DHT22;6214;48.012;7.862;2023-04-21T14:40:30;19.60;99.90
12303;DHT22;6214;48.012;7.862;2023-04-21T14:42:57;19.40;99.90
12303;DHT22;6214;48.012;7.862;2023-04-21T14:45:24;19.00;99.90
12303;DHT22;6214;48.012;7.862;2023-04-21T14:47:52;18.90;99.90
12303;DHT22;6214;48.012;7.862;2023-04-21T14:50:19;18.80;99.90
12303;DHT22;6214;48.012;7.862;2023-04-21T14:52:46;18.70;99.90
12303;DHT22;6214;48.012;7.862;2023-04-21T14:55:15;18.40;99.90
12303;DHT22;6214;48.012;7.862;2023-04-21T14:57:42;18.30;99.90
12303;DHT22;6214;48.012;7.862;2023-04-21T15:00:10;18.40;99.90
12303;DHT22;6214;48.012;7.862;2023-04-21T15:02:37;18.40;99.90
12303;DHT22;6214;48.012;7.862;2023-04-21T15:05:07;18.30;99.90
12303;DHT22;6214;48.012;7.862;2023-04-21T15:07:34;18.30;99.90
12303;DHT22;6214;48.012;7.862;2023-04-21T15:10:02;18.10;99.90
12303;DHT22;6214;48.012;7.862;2023-04-21T15:12:29;18.00;99.90
12303;DHT22;6214;48.012;7.862;2023-04-21T15:14:56;18.20;99.90
12303;DHT22;6214;48.012;7.862;2023-04-21T15:17:23;18.50;99.90
12303;DHT22;6214;48.012;7.862;2023-04-21T15:19:50;18.80;99.90
12303;DHT22;6214;48.012;7.862;2023-04-21T15:22:17;18.50;99.90
12303;DHT22;6214;48.012;7.862;2023-04-21T15:24:44;18.80;99.90
12303;DHT22;6214;48.012;7.862;2023-04-21T15:27:11;19.10;99.90
12303;DHT22;6214;48.012;7.862;2023-04-21T15:29:38;19.40;99.90
12303;DHT22;6214;48.012;7.862;2023-04-21T15:32:06;19.60;99.90
12303;DHT22;6214;48.012;7.862;2023-04-21T15:34:32;19.30;99.90
12303;DHT22;6214;48.012;7.862;2023-04-21T15:36:59;19.20;99.90
12303;DHT22;6214;48.012;7.862;2023-04-21T15:39:26;19.30;99.90
12303;DHT22;6214;48.012;7.862;2023-04-21T15:41:54;19.40;99.90
12303;DHT22;6214;48.012;7.862;2023-04-21T15:44:21;19.40;99.90
12303;DHT22;6214;48.012;7.862;2023-04-21T15:46:48;19.60;99.90
12303;DHT22;6214;48.012;7.862;2023-04-21T15:49:16;19.50;99.90
12303;DHT22;6214;48.012;7.862;2023-04-21T15:51:43;19.40;99.90
12303;DHT22;6214;48.012;7.862;2023-04-21T15:54:10;19.40;99.90
12303;DHT22;6214;48.012;7.862;2023-04-21T15:56:37;19.50;99.90
12303;DHT22;6214;48.012;7.862;2023-04-21T15:59:04;19.50;99.90
12303;DHT22;6214;48.012;7.862;2023-04-21T16:01:31;19.60;99.90
12303;DHT22;6214;48.012;7.862;2023-04-21T16:03:58;19.70;99.90